Time;durP1;ratioP1;P1;durP2;ratioP2;P2;SDS_P1;SDS_P2;PMS_P1;PMS_P2;Temp;Humidity;BMP_temperature;BMP_pressure;BME280_temperature;BME280_humidity;BME280_pressure;Samples;Min_cycle;Max_cycle;Signal;HPM_P1;HPM_P2
2020/12/17 00:00:39;;;;;;;21.00;17.80;;;8.70;99.90;;;;;;4980397;28;20468;-87
2020/12/17 00:03:08;;;;;;;21.03;18.40;;;8.80;99.90;;;;;;4981269;28;20524;-87
2020/12/17 00:05:35;;;;;;;21.63;18.00;;;8.70;99.90;;;;;;4980046;28;20515;-87
2020/12/17 00:08:03;;;;;;;21.67;18.60;;;8.70;99.90;;;;;;4980833;28;20791;-87
2020/12/17 00:10:30;;;;;;;20.07;17.97;;;8.70;99.90;;;;;;4979668;28;20472;-87
2020/12/17 00:12:57;;;;;;;23.40;19.53;;;8.70;99.90;;;;;;4978662;28;20450;-87
2020/12/17 00:15:25;;;;;;;24.00;20.40;;;8.70;99.90;;;;;;4979455;28;20493;-87
2020/12/17 00:17:53;;;;;;;22.77;19.07;;;8.70;99.90;;;;;;4979526;28;20580;-87
2020/12/17 00:20:24;;;;;;;22.40;19.57;;;8.70;99.90;;;;;;4978915;28;20499;-87
2020/12/17 00:22:51;;;;;;;22.80;20.20;;;8.70;99.90;;;;;;4979115;28;20481;-87
2020/12/17 00:25:19;;;;;;;20.90;18.70;;;8.70;99.90;;;;;;4978706;28;20472;-87
2020/12/17 00:27:47;;;;;;;21.37;18.97;;;8.70;99.90;;;;;;4978493;28;20454;-88
2020/12/17 00:30:17;;;;;;;23.53;19.90;;;8.70;99.90;;;;;;4978463;28;20453;-88
2020/12/17 00:32:46;;;;;;;24.30;20.30;;;8.70;99.90;;;;;;4979027;28;20461;-87
2020/12/17 00:35:14;;;;;;;24.43;19.93;;;8.70;99.90;;;;;;4979793;28;20943;-87
2020/12/17 00:37:43;;;;;;;23.03;19.30;;;8.70;99.90;;;;;;4978488;28;20477;-87
2020/12/17 00:40:11;;;;;;;21.93;19.63;;;8.70;99.90;;;;;;4979112;28;20448;-87
2020/12/17 00:42:40;;;;;;;24.77;21.00;;;8.70;99.90;;;;;;4978070;28;20512;-87
2020/12/17 00:45:08;;;;;;;22.80;20.33;;;8.70;99.90;;;;;;4978260;28;20543;-87
2020/12/17 00:47:35;;;;;;;20.60;18.33;;;8.60;99.90;;;;;;4978369;28;20446;-88
2020/12/17 00:50:04;;;;;;;22.40;19.50;;;8.70;99.90;;;;;;4978023;28;20453;-87
2020/12/17 00:52:34;;;;;;;23.70;19.50;;;8.60;99.90;;;;;;4978615;28;20460;-87
2020/12/17 00:55:03;;;;;;;21.73;19.43;;;8.70;99.90;;;;;;4978442;28;20484;-87
2020/12/17 00:57:31;;;;;;;23.00;20.50;;;8.60;99.90;;;;;;4977998;28;20462;-87
2020/12/17 00:59:58;;;;;;;25.50;20.90;;;8.70;99.90;;;;;;4978661;28;20458;-87
2020/12/17 01:02:28;;;;;;;23.43;20.87;;;8.70;99.90;;;;;;4978037;28;20498;-87
2020/12/17 01:04:55;;;;;;;21.67;19.27;;;8.70;99.90;;;;;;4978409;28;20787;-87
2020/12/17 01:07:22;;;;;;;25.67;20.10;;;8.60;99.90;;;;;;4977759;28;20504;-87
2020/12/17 01:09:50;;;;;;;23.40;19.37;;;8.70;99.90;;;;;;4978621;28;20252;-87
2020/12/17 01:12:19;;;;;;;25.10;19.37;;;8.70;99.90;;;;;;4977512;28;20485;-87
2020/12/17 01:14:47;;;;;;;27.08;21.70;;;8.70;99.90;;;;;;4977437;28;20446;-87
2020/12/17 01:17:15;;;;;;;24.93;18.90;;;8.80;99.90;;;;;;4978189;28;20202;-87
2020/12/17 01:19:43;;;;;;;25.27;19.50;;;8.80;99.90;;;;;;4977783;28;20895;-87
2020/12/17 01:22:10;;;;;;;23.93;19.23;;;8.70;99.90;;;;;;4978468;28;20900;-87
2020/12/17 01:24:37;;;;;;;25.70;21.67;;;8.70;99.90;;;;;;4980143;28;20461;-87
2020/12/17 01:27:04;;;;;;;23.80;21.20;;;8.70;99.90;;;;;;4977869;28;20450;-87
2020/12/17 01:29:33;;;;;;;26.20;22.30;;;8.70;99.90;;;;;;4977722;28;20452;-87
2020/12/17 01:32:00;;;;;;;24.10;19.40;;;8.70;99.90;;;;;;4979144;28;20464;-87
2020/12/17 01:34:28;;;;;;;23.30;20.60;;;8.70;99.90;;;;;;4978515;28;20463;-86
2020/12/17 01:36:56;;;;;;;25.07;21.80;;;8.70;99.90;;;;;;4979119;28;20452;-87
2020/12/17 01:39:23;;;;;;;25.33;19.80;;;8.70;99.90;;;;;;4978683;28;20534;-87
2020/12/17 01:41:51;;;;;;;23.67;20.80;;;8.70;99.90;;;;;;4979044;28;20469;-87
2020/12/17 01:44:19;;;;;;;24.03;21.50;;;8.70;99.90;;;;;;4978338;28;20817;-86
2020/12/17 01:46:47;;;;;;;26.30;22.00;;;8.70;99.90;;;;;;4980020;28;21071;-87
2020/12/17 01:49:22;;;;;;;23.30;20.47;;;8.70;99.90;;;;;;4978135;28;20449;-87
2020/12/17 01:51:49;;;;;;;26.97;21.03;;;8.60;99.90;;;;;;4977997;28;20479;-87
2020/12/17 01:54:17;;;;;;;26.13;21.27;;;8.70;99.90;;;;;;4977732;28;20463;-87
2020/12/17 01:56:48;;;;;;;29.27;23.17;;;8.60;99.90;;;;;;4978023;28;20489;-87
2020/12/17 01:59:22;;;;;;;25.33;21.57;;;8.60;99.90;;;;;;4977573;28;20568;-87
2020/12/17 02:01:51;;;;;;;22.40;20.00;;;8.70;99.90;;;;;;4978171;28;21061;-87
2020/12/17 02:04:22;;;;;;;25.43;22.10;;;8.70;99.90;;;;;;4978274;28;20456;-86
2020/12/17 02:06:50;;;;;;;25.37;22.53;;;8.70;99.90;;;;;;4977685;28;20461;-87
2020/12/17 02:09:18;;;;;;;26.90;22.27;;;8.70;99.90;;;;;;4977801;28;20441;-87
2020/12/17 02:11:53;;;;;;;28.30;22.37;;;8.70;99.90;;;;;;4977835;28;20477;-86
2020/12/17 02:14:21;;;;;;;24.83;22.00;;;8.70;99.90;;;;;;4978030;28;20451;-86
2020/12/17 02:16:48;;;;;;;25.10;21.40;;;8.70;99.90;;;;;;4978006;28;20796;-87
2020/12/17 02:19:17;;;;;;;25.30;21.13;;;8.70;99.90;;;;;;4978030;28;20491;-88
2020/12/17 02:21:44;;;;;;;24.37;21.73;;;8.60;99.90;;;;;;4978152;28;20466;-87
2020/12/17 02:24:12;;;;;;;26.50;21.87;;;8.70;99.90;;;;;;4978295;28;20540;-87
2020/12/17 02:26:40;;;;;;;27.10;22.20;;;8.70;99.90;;;;;;4981253;28;20451;-86
2020/12/17 02:29:08;;;;;;;26.23;23.13;;;8.60;99.90;;;;;;4981509;28;20454;-87
2020/12/17 02:31:36;;;;;;;23.97;21.03;;;8.70;99.90;;;;;;4981108;28;20534;-87
2020/12/17 02:34:03;;;;;;;25.17;21.40;;;8.70;99.90;;;;;;4981123;28;20855;-87
2020/12/17 02:36:31;;;;;;;25.33;21.20;;;8.70;99.90;;;;;;4980904;28;20977;-87
2020/12/17 02:38:59;;;;;;;26.17;22.00;;;8.70;99.90;;;;;;4981471;28;20476;-87
2020/12/17 02:41:27;;;;;;;25.43;21.00;;;8.70;99.90;;;;;;4981838;28;20468;-87
2020/12/17 02:43:55;;;;;;;28.17;22.57;;;8.70;99.90;;;;;;4981046;28;20454;-87
2020/12/17 02:46:22;;;;;;;25.80;21.87;;;8.70;99.90;;;;;;4981400;28;20456;-86
2020/12/17 02:48:50;;;;;;;30.87;23.73;;;8.70;99.90;;;;;;4983007;28;20477;-87
2020/12/17 02:51:18;;;;;;;25.40;22.57;;;8.70;99.90;;;;;;4983118;28;20460;-87
2020/12/17 02:53:46;;;;;;;27.70;22.25;;;8.70;99.90;;;;;;4980714;28;20484;-87
2020/12/17 02:56:14;;;;;;;26.67;20.70;;;8.80;99.90;;;;;;4982613;28;20461;-86
2020/12/17 02:58:41;;;;;;;25.80;21.00;;;8.80;99.90;;;;;;4982415;28;20983;-86
2020/12/17 03:01:10;;;;;;;26.90;21.48;;;8.80;99.90;;;;;;4981038;28;20521;-87
2020/12/17 03:03:37;;;;;;;26.20;19.77;;;8.80;99.90;;;;;;4981074;28;20268;-87
2020/12/17 03:06:06;;;;;;;24.77;20.87;;;8.80;99.90;;;;;;4980962;28;21030;-87
2020/12/17 03:08:33;;;;;;;24.70;21.73;;;8.70;99.90;;;;;;4980501;28;20464;-87
2020/12/17 03:11:01;;;;;;;28.37;21.57;;;8.70;99.90;;;;;;4980538;28;20469;-87
2020/12/17 03:13:28;;;;;;;26.40;21.57;;;8.80;99.90;;;;;;4981281;28;20946;-88
2020/12/17 03:15:55;;;;;;;26.47;21.80;;;8.70;99.90;;;;;;4981694;28;20441;-87
2020/12/17 03:18:24;;;;;;;22.57;19.50;;;8.80;99.90;;;;;;4979538;28;20500;-87
2020/12/17 03:20:51;;;;;;;26.90;23.60;;;8.70;99.90;;;;;;4980626;28;20496;-86
2020/12/17 03:23:19;;;;;;;25.53;20.80;;;8.70;99.90;;;;;;4979720;28;20511;-87
2020/12/17 03:25:46;;;;;;;26.47;22.43;;;8.70;99.90;;;;;;4980020;28;20456;-87
2020/12/17 03:28:14;;;;;;;24.40;21.60;;;8.80;99.90;;;;;;4979673;28;20449;-87
2020/12/17 03:30:41;;;;;;;27.50;22.57;;;8.70;99.90;;;;;;4980460;28;20480;-86
2020/12/17 03:33:11;;;;;;;27.30;22.37;;;8.80;99.90;;;;;;4980360;28;20449;-86
2020/12/17 03:35:41;;;;;;;24.43;21.20;;;8.80;99.90;;;;;;4979889;28;20459;-87
2020/12/17 03:38:08;;;;;;;25.50;22.73;;;8.70;99.90;;;;;;4980357;28;20469;-86
2020/12/17 03:40:35;;;;;;;25.90;20.77;;;8.80;99.90;;;;;;4981323;28;20496;-86
2020/12/17 03:43:03;;;;;;;27.60;22.47;;;8.80;99.90;;;;;;4978264;28;20526;-86
2020/12/17 03:45:30;;;;;;;26.77;21.27;;;8.80;99.90;;;;;;4976594;28;20454;-86
2020/12/17 03:47:58;;;;;;;26.33;23.00;;;8.80;99.90;;;;;;4984368;28;20486;-87
2020/12/17 03:50:25;;;;;;;29.17;23.13;;;8.80;99.90;;;;;;4979856;28;20481;-87
2020/12/17 03:52:53;;;;;;;27.13;22.50;;;8.80;99.90;;;;;;4979342;28;20951;-87
2020/12/17 03:55:21;;;;;;;27.37;22.43;;;8.80;99.90;;;;;;4979726;28;20500;-87
2020/12/17 03:57:48;;;;;;;25.13;21.03;;;8.80;99.90;;;;;;4979202;28;20457;-87
2020/12/17 04:00:16;;;;;;;27.30;21.23;;;8.80;99.90;;;;;;4979449;28;20825;-87
2020/12/17 04:02:43;;;;;;;28.10;23.67;;;8.80;99.90;;;;;;4979064;28;20464;-87
2020/12/17 04:05:10;;;;;;;26.83;22.43;;;8.70;99.90;;;;;;4981059;28;20519;-87
2020/12/17 04:07:38;;;;;;;26.40;22.20;;;8.80;99.90;;;;;;4980648;28;20950;-87
2020/12/17 04:10:06;;;;;;;25.50;21.83;;;8.70;99.90;;;;;;4979530;28;21053;-87
2020/12/17 04:12:34;;;;;;;26.93;23.70;;;8.80;99.90;;;;;;4979175;28;20955;-87
2020/12/17 04:15:01;;;;;;;27.80;22.40;;;8.70;99.90;;;;;;4979106;28;20473;-87
2020/12/17 04:17:28;;;;;;;29.13;22.97;;;8.80;99.90;;;;;;4979122;28;20493;-87
2020/12/17 04:19:55;;;;;;;27.95;22.38;;;8.70;99.90;;;;;;4978283;28;20496;-87
2020/12/17 04:22:23;;;;;;;28.30;21.23;;;8.80;99.90;;;;;;4978665;28;20229;-87
2020/12/17 04:24:50;;;;;;;28.17;20.93;;;8.80;99.90;;;;;;4979042;28;20457;-87
2020/12/17 04:27:19;;;;;;;28.80;22.73;;;8.80;99.90;;;;;;4978798;28;20454;-86
2020/12/17 04:29:46;;;;;;;26.37;20.50;;;8.80;99.90;;;;;;4979295;28;20197;-86
2020/12/17 04:32:14;;;;;;;27.27;20.70;;;8.80;99.90;;;;;;4978805;28;20506;-86
2020/12/17 04:34:42;;;;;;;29.33;24.23;;;8.80;99.90;;;;;;4980568;28;20447;-86
2020/12/17 04:37:09;;;;;;;27.70;22.93;;;8.80;99.90;;;;;;4978877;28;20479;-86
2020/12/17 04:39:38;;;;;;;29.17;22.90;;;8.80;99.90;;;;;;4978595;28;20484;-87
2020/12/17 04:42:07;;;;;;;30.33;24.50;;;8.80;99.90;;;;;;4978664;28;20483;-86
2020/12/17 04:44:35;;;;;;;28.67;22.63;;;8.70;99.90;;;;;;4979446;28;20450;-87
2020/12/17 04:47:05;;;;;;;28.23;24.00;;;8.70;99.90;;;;;;4978494;28;20833;-87
2020/12/17 04:49:38;;;;;;;27.43;21.97;;;8.80;99.90;;;;;;4978896;28;20452;-87
2020/12/17 04:52:07;;;;;;;27.27;22.87;;;8.70;99.90;;;;;;4980242;28;20460;-86
2020/12/17 04:54:34;;;;;;;30.00;23.00;;;8.70;99.90;;;;;;4978852;28;20862;-87
2020/12/17 04:57:07;;;;;;;27.73;23.27;;;8.80;99.90;;;;;;4978855;28;20452;-87
2020/12/17 04:59:44;;;;;;;27.00;22.20;;;8.80;99.90;;;;;;4978969;28;20962;-87
2020/12/17 05:02:13;;;;;;;29.80;25.50;;;8.70;99.90;;;;;;4979623;28;20496;-87
2020/12/17 05:04:42;;;;;;;33.27;25.60;;;8.80;99.90;;;;;;4979904;28;20449;-86
2020/12/17 05:07:11;;;;;;;27.17;24.00;;;8.80;99.90;;;;;;4980276;28;20445;-86
2020/12/17 05:09:39;;;;;;;28.43;23.90;;;8.80;99.90;;;;;;4978885;28;20445;-87
2020/12/17 05:12:07;;;;;;;27.60;22.57;;;8.80;99.90;;;;;;4978838;28;20511;-87
2020/12/17 05:14:35;;;;;;;29.57;24.20;;;8.70;99.90;;;;;;4978316;28;20477;-87
2020/12/17 05:17:04;;;;;;;26.87;22.03;;;8.80;99.90;;;;;;4978528;28;20503;-87
2020/12/17 05:19:31;;;;;;;29.83;23.97;;;8.80;99.90;;;;;;4978164;28;20477;-86
2020/12/17 05:22:00;;;;;;;26.87;23.07;;;8.80;99.90;;;;;;4978339;28;20479;-86
2020/12/17 05:24:28;;;;;;;29.23;24.23;;;8.80;99.90;;;;;;4978593;28;20863;-87
2020/12/17 05:26:58;;;;;;;29.40;22.80;;;8.80;99.90;;;;;;4978166;28;20505;-86
2020/12/17 05:29:28;;;;;;;29.60;24.40;;;8.80;99.90;;;;;;4978588;28;20504;-86
2020/12/17 05:31:56;;;;;;;29.20;23.90;;;8.80;99.90;;;;;;4978766;28;20480;-86
2020/12/17 05:34:24;;;;;;;30.37;24.53;;;8.80;99.90;;;;;;4978852;28;20511;-86
2020/12/17 05:36:54;;;;;;;31.33;24.80;;;8.80;99.90;;;;;;4978361;28;20790;-86
2020/12/17 05:39:23;;;;;;;28.20;23.63;;;8.80;99.90;;;;;;4978706;28;20512;-86
2020/12/17 05:41:53;;;;;;;28.50;23.57;;;8.80;99.90;;;;;;4978352;28;20887;-87
2020/12/17 05:44:21;;;;;;;28.93;23.10;;;8.80;99.90;;;;;;4979456;28;20495;-86
2020/12/17 05:46:50;;;;;;;27.70;24.10;;;8.80;99.90;;;;;;4978224;28;20528;-86
2020/12/17 05:49:20;;;;;;;28.73;24.57;;;8.70;99.90;;;;;;4977865;28;20457;-87
2020/12/17 05:51:50;;;;;;;30.23;23.73;;;8.80;99.90;;;;;;4979370;28;20532;-86
2020/12/17 05:54:22;;;;;;;32.27;24.50;;;8.80;99.90;;;;;;4977639;28;21017;-86
2020/12/17 05:57:03;;;;;;;29.57;25.43;;;8.80;99.90;;;;;;4977760;28;20441;-86
2020/12/17 05:59:30;;;;;;;30.03;25.27;;;8.80;99.90;;;;;;4981135;28;20463;-86
2020/12/17 06:01:59;;;;;;;32.53;25.30;;;8.80;99.90;;;;;;4982030;28;20480;-86
2020/12/17 06:04:26;;;;;;;33.65;25.70;;;8.80;99.90;;;;;;4982084;28;20535;-86
2020/12/17 06:07:03;;;;;;;37.43;25.53;;;8.80;99.90;;;;;;4981219;28;20202;-87
2020/12/17 06:09:35;;;;;;;35.17;24.67;;;8.80;99.90;;;;;;4981701;28;20441;-87
2020/12/17 06:12:03;;;;;;;36.13;27.02;;;8.80;99.90;;;;;;4980390;28;20509;-86
2020/12/17 06:14:33;;;;;;;32.63;24.63;;;8.80;99.90;;;;;;4984920;28;20194;-86
2020/12/17 06:17:06;;;;;;;30.63;25.77;;;8.80;99.90;;;;;;4981564;28;20448;-86
2020/12/17 06:19:37;;;;;;;35.00;25.40;;;8.80;99.90;;;;;;4981589;28;20477;-87
2020/12/17 06:22:10;;;;;;;32.77;25.53;;;8.80;99.90;;;;;;4980608;28;20516;-87
2020/12/17 06:24:38;;;;;;;32.70;25.60;;;8.80;99.90;;;;;;4980345;28;20537;-87
2020/12/17 06:27:09;;;;;;;31.20;24.30;;;8.70;99.90;;;;;;4980948;28;20487;-87
2020/12/17 06:29:48;;;;;;;31.47;23.57;;;8.80;99.90;;;;;;4981795;28;20448;-86
2020/12/17 06:32:17;;;;;;;29.73;23.93;;;8.70;99.90;;;;;;4981677;28;20485;-87
2020/12/17 06:34:50;;;;;;;28.33;22.97;;;8.80;99.90;;;;;;4980974;28;20523;-87
2020/12/17 06:37:19;;;;;;;31.20;23.93;;;8.80;99.90;;;;;;4981053;28;20467;-86
2020/12/17 06:39:48;;;;;;;31.30;24.17;;;8.70;99.90;;;;;;4980604;28;20552;-88
2020/12/17 06:42:36;;;;;;;30.73;23.47;;;8.70;99.90;;;;;;4980706;28;20487;-87
2020/12/17 06:45:04;;;;;;;32.03;23.40;;;8.70;99.90;;;;;;4979893;28;20516;-86
2020/12/17 06:47:36;;;;;;;26.97;22.90;;;8.70;99.90;;;;;;4978863;28;20476;-86
2020/12/17 06:50:25;;;;;;;54.57;38.77;;;8.70;99.90;;;;;;4987623;28;20575;-86
2020/12/17 06:53:07;;;;;;;41.37;28.77;;;8.70;99.90;;;;;;4984286;28;20437;-87
2020/12/17 06:55:42;;;;;;;28.13;23.37;;;8.70;99.90;;;;;;4980360;28;20461;-87
2020/12/17 06:58:20;;;;;;;27.13;22.23;;;8.80;99.90;;;;;;4981083;28;20445;-87
2020/12/17 07:00:49;;;;;;;29.90;23.33;;;8.80;99.90;;;;;;4980838;28;20476;-87
2020/12/17 07:03:46;;;;;;;27.20;22.63;;;8.70;99.90;;;;;;4980561;28;20453;-87
2020/12/17 07:06:16;;;;;;;30.23;23.67;;;8.70;99.90;;;;;;4980716;28;20481;-87
2020/12/17 07:08:45;;;;;;;26.00;23.20;;;8.70;99.90;;;;;;4980245;28;20488;-87
2020/12/17 07:11:39;;;;;;;26.30;21.10;;;8.70;99.90;;;;;;4979146;28;20469;-87
2020/12/17 07:14:09;;;;;;;26.90;24.00;;;8.80;99.90;;;;;;4980922;28;21013;-87
2020/12/17 07:16:37;;;;;;;27.83;22.30;;;8.70;99.90;;;;;;4982931;28;20429;-86
2020/12/17 07:19:22;;;;;;;39.10;31.30;;;8.80;99.90;;;;;;4980838;28;20523;-87
2020/12/17 07:21:58;;;;;;;26.30;21.70;;;8.80;99.90;;;;;;4980864;28;20903;-87
2020/12/17 07:24:30;;;;;;;25.73;21.40;;;8.80;99.90;;;;;;4983589;28;20459;-87
2020/12/17 07:27:06;;;;;;;26.83;21.67;;;8.80;99.90;;;;;;4979972;28;20449;-86
2020/12/17 07:29:40;;;;;;;25.25;21.73;;;8.80;99.90;;;;;;4979430;28;20450;-87
2020/12/17 07:32:28;;;;;;;24.50;19.40;;;8.90;99.90;;;;;;4980028;28;20644;-87
2020/12/17 07:34:57;;;;;;;22.27;18.67;;;8.90;99.90;;;;;;4979610;28;20449;-87
2020/12/17 07:37:38;;;;;;;25.70;20.45;;;8.90;99.90;;;;;;4979295;28;20450;-87
2020/12/17 07:40:24;;;;;;;21.57;17.57;;;8.90;99.90;;;;;;4979671;28;20573;-87
2020/12/17 07:43:06;;;;;;;31.87;23.67;;;8.90;99.90;;;;;;4979670;28;20446;-87
2020/12/17 07:45:52;;;;;;;21.03;18.70;;;8.90;99.90;;;;;;4979917;28;20456;-87
2020/12/17 07:48:47;;;;;;;20.77;18.57;;;8.90;99.90;;;;;;4979649;28;20954;-86
2020/12/17 07:51:31;;;;;;;19.63;17.37;;;8.90;99.90;;;;;;4957490;28;20524;-87
2020/12/17 07:54:03;;;;;;;18.00;16.10;;;9.00;99.90;;;;;;4978011;28;20970;-87
2020/12/17 07:56:32;;;;;;;19.30;17.30;;;9.00;99.90;;;;;;4979924;28;20446;-87
2020/12/17 07:59:04;;;;;;;20.70;16.97;;;9.00;99.90;;;;;;4979830;28;20505;-86
2020/12/17 08:01:32;;;;;;;16.23;14.50;;;9.00;99.90;;;;;;4980177;28;20472;-86
2020/12/17 08:04:00;;;;;;;18.00;15.50;;;9.10;99.90;;;;;;4979976;28;20509;-86
2020/12/17 08:06:28;;;;;;;17.33;15.37;;;9.10;99.90;;;;;;4980300;28;20962;-87
2020/12/17 08:08:58;;;;;;;18.67;16.00;;;9.10;99.90;;;;;;4979607;28;20492;-86
2020/12/17 08:11:36;;;;;;;16.80;15.10;;;9.20;99.90;;;;;;4980160;28;20473;-87
2020/12/17 08:14:05;;;;;;;19.40;16.47;;;9.20;99.90;;;;;;4978944;28;20453;-87
2020/12/17 08:16:34;;;;;;;20.40;17.00;;;9.20;99.90;;;;;;4979795;28;20453;-87
2020/12/17 08:19:02;;;;;;;18.03;15.47;;;9.20;99.90;;;;;;4979525;28;20477;-86
2020/12/17 08:21:30;;;;;;;17.90;16.10;;;9.20;99.90;;;;;;4980635;28;20461;-86
2020/12/17 08:23:57;;;;;;;17.10;15.37;;;9.20;99.90;;;;;;4980930;28;20466;-86
2020/12/17 08:26:26;;;;;;;17.30;14.73;;;9.30;99.90;;;;;;4979414;28;20484;-86
2020/12/17 08:28:54;;;;;;;19.30;15.60;;;9.30;99.90;;;;;;4979175;28;20504;-86
2020/12/17 08:31:23;;;;;;;17.10;14.90;;;9.30;99.90;;;;;;4980034;28;20476;-86
2020/12/17 08:33:52;;;;;;;22.93;18.10;;;9.30;99.90;;;;;;4979739;28;20522;-87
2020/12/17 08:36:23;;;;;;;17.83;15.97;;;9.30;99.90;;;;;;4978859;28;20454;-86
2020/12/17 08:38:58;;;;;;;19.53;16.20;;;9.30;99.90;;;;;;4979460;28;20899;-86
2020/12/17 08:41:28;;;;;;;19.90;16.77;;;9.30;99.90;;;;;;4979410;28;20474;-87
2020/12/17 08:44:01;;;;;;;18.10;16.20;;;9.30;99.90;;;;;;4979377;28;20569;-87
2020/12/17 08:46:31;;;;;;;19.70;16.43;;;9.30;99.90;;;;;;4978953;28;20472;-86
2020/12/17 08:49:01;;;;;;;16.90;14.53;;;9.30;99.90;;;;;;4978995;28;20974;-86
2020/12/17 08:51:30;;;;;;;16.70;14.90;;;9.40;99.90;;;;;;4979343;28;20466;-87
2020/12/17 08:53:57;;;;;;;19.93;16.47;;;9.30;99.90;;;;;;4978691;28;20457;-87
2020/12/17 08:56:25;;;;;;;18.57;15.10;;;9.40;99.90;;;;;;4978945;28;20458;-86
2020/12/17 08:58:54;;;;;;;18.80;15.60;;;9.40;99.90;;;;;;4978594;28;20471;-88
2020/12/17 09:01:27;;;;;;;18.20;16.30;;;9.40;99.90;;;;;;4978748;28;20465;-86
2020/12/17 09:03:56;;;;;;;17.73;15.80;;;9.40;99.90;;;;;;4979221;28;20480;-86
2020/12/17 09:06:25;;;;;;;18.37;16.37;;;9.40;99.90;;;;;;4978853;28;20967;-86
2020/12/17 09:08:54;;;;;;;18.67;15.00;;;9.40;99.90;;;;;;4979104;28;20448;-87
2020/12/17 09:11:36;;;;;;;19.40;16.53;;;9.40;99.90;;;;;;4979908;28;20531;-87
2020/12/17 09:14:06;;;;;;;18.20;15.70;;;9.40;99.90;;;;;;4979204;28;20501;-86
2020/12/17 09:16:37;;;;;;;20.17;16.13;;;9.40;99.90;;;;;;4978518;28;20458;-86
2020/12/17 09:19:07;;;;;;;19.00;15.87;;;9.50;99.90;;;;;;4978419;28;20524;-87
2020/12/17 09:21:36;;;;;;;19.83;16.37;;;9.50;99.90;;;;;;4978486;28;20698;-86
2020/12/17 09:24:04;;;;;;;18.47;14.87;;;9.50;99.90;;;;;;4978049;28;20825;-87
2020/12/17 09:26:33;;;;;;;16.00;14.37;;;9.50;99.90;;;;;;4977817;28;20454;-87
2020/12/17 09:29:02;;;;;;;14.77;13.27;;;9.50;99.90;;;;;;4977140;28;20488;-86
2020/12/17 09:31:34;;;;;;;17.48;15.68;;;9.50;99.90;;;;;;4976089;28;20434;-86
2020/12/17 09:34:13;;;;;;;16.40;14.60;;;9.60;99.90;;;;;;4979058;28;20194;-87
2020/12/17 09:36:43;;;;;;;15.60;13.90;;;9.60;99.90;;;;;;4987679;28;20499;-87
2020/12/17 09:39:13;;;;;;;16.00;14.30;;;9.60;99.90;;;;;;4981718;28;20500;-87
2020/12/17 09:41:55;;;;;;;15.60;14.00;;;9.60;99.90;;;;;;4983580;28;21073;-87
2020/12/17 09:44:31;;;;;;;16.93;14.87;;;9.70;99.90;;;;;;4980925;28;20970;-87
2020/12/17 09:47:00;;;;;;;16.80;15.00;;;9.70;99.90;;;;;;4984249;28;20962;-87
2020/12/17 09:49:35;;;;;;;18.07;16.27;;;9.70;99.90;;;;;;4981054;28;20954;-87
2020/12/17 09:52:08;;;;;;;15.90;14.20;;;9.70;99.90;;;;;;4980809;28;20477;-88
2020/12/17 09:54:39;;;;;;;16.57;14.87;;;9.70;99.90;;;;;;4980358;28;20453;-87
2020/12/17 09:57:10;;;;;;;17.40;15.60;;;9.70;99.90;;;;;;4980811;28;20853;-87
2020/12/17 09:59:38;;;;;;;17.67;15.27;;;9.70;99.90;;;;;;4980485;28;20476;-87
2020/12/17 10:02:08;;;;;;;17.83;15.97;;;9.70;99.90;;;;;;4980844;28;20477;-87
2020/12/17 10:04:35;;;;;;;16.27;14.57;;;9.70;99.90;;;;;;4980708;28;20457;-87
2020/12/17 10:07:03;;;;;;;17.80;15.20;;;9.70;99.90;;;;;;4980915;28;20532;-87
2020/12/17 10:09:31;;;;;;;16.33;14.63;;;9.70;99.90;;;;;;4981443;28;20457;-88
2020/12/17 10:11:59;;;;;;;16.73;14.47;;;9.80;99.90;;;;;;4984621;28;20470;-88
2020/12/17 10:14:28;;;;;;;16.50;14.80;;;9.80;99.90;;;;;;4980495;28;20966;-87
2020/12/17 10:17:00;;;;;;;17.00;14.87;;;9.80;99.90;;;;;;4980939;28;20472;-87
2020/12/17 10:19:30;;;;;;;17.57;14.87;;;9.80;99.90;;;;;;4981105;28;20500;-87
2020/12/17 10:21:58;;;;;;;17.10;15.40;;;9.80;99.90;;;;;;4981342;28;20987;-87
2020/12/17 10:24:26;;;;;;;16.13;14.53;;;9.80;99.90;;;;;;4980743;28;20525;-87
2020/12/17 10:26:54;;;;;;;17.37;15.57;;;9.80;99.90;;;;;;4981193;28;20460;-87
2020/12/17 10:29:25;;;;;;;16.23;14.73;;;9.80;99.90;;;;;;4980909;28;20835;-87
2020/12/17 10:31:54;;;;;;;16.17;14.77;;;9.80;99.90;;;;;;4979757;28;20476;-87
2020/12/17 10:34:24;;;;;;;16.60;14.90;;;9.80;99.90;;;;;;4980114;28;20481;-88
2020/12/17 10:36:52;;;;;;;18.20;16.30;;;9.90;99.90;;;;;;4980769;28;20468;-87
2020/12/17 10:39:20;;;;;;;17.03;15.23;;;9.90;99.90;;;;;;4981242;28;20516;-87
2020/12/17 10:41:48;;;;;;;16.03;14.40;;;9.90;99.90;;;;;;4980732;28;20483;-87
2020/12/17 10:44:16;;;;;;;14.55;13.25;;;9.90;99.90;;;;;;4979738;28;20454;-87
2020/12/17 10:46:44;;;;;;;13.83;12.43;;;10.00;99.90;;;;;;4979256;28;20202;-87
2020/12/17 10:49:12;;;;;;;14.37;12.87;;;10.00;99.90;;;;;;4979492;28;21058;-87
2020/12/17 10:51:41;;;;;;;11.70;10.63;;;10.00;99.90;;;;;;4980181;28;20346;-88
2020/12/17 10:54:10;;;;;;;13.20;12.00;;;10.00;99.90;;;;;;4980570;28;20686;-87
2020/12/17 10:56:38;;;;;;;11.77;10.57;;;10.00;99.90;;;;;;4979626;28;20468;-87
2020/12/17 10:59:05;;;;;;;12.77;11.47;;;10.10;99.90;;;;;;4979933;28;20496;-87
2020/12/17 11:01:33;;;;;;;12.47;11.20;;;10.10;99.90;;;;;;4979704;28;20840;-87
2020/12/17 11:04:06;;;;;;;10.93;9.83;;;10.10;99.90;;;;;;4979797;28;20466;-87
2020/12/17 11:06:51;;;;;;;11.30;10.20;;;10.10;99.90;;;;;;4980058;28;20489;-87
2020/12/17 11:09:24;;;;;;;11.53;10.40;;;10.10;99.90;;;;;;4980739;28;20506;-88
2020/12/17 11:11:51;;;;;;;12.17;10.97;;;10.20;99.90;;;;;;4979588;28;20473;-87
2020/12/17 11:14:19;;;;;;;12.47;11.17;;;10.20;99.90;;;;;;4979395;28;20809;-87
2020/12/17 11:16:49;;;;;;;11.07;10.07;;;10.10;99.90;;;;;;4979020;28;21029;-87
2020/12/17 11:19:17;;;;;;;11.23;10.13;;;10.20;99.90;;;;;;4978381;28;20464;-88
2020/12/17 11:21:45;;;;;;;11.40;10.30;;;10.20;99.90;;;;;;4978686;28;20473;-87
2020/12/17 11:24:13;;;;;;;10.67;9.60;;;10.10;99.90;;;;;;4978856;28;20474;-87
2020/12/17 11:26:45;;;;;;;11.27;10.10;;;10.20;99.90;;;;;;4978726;28;20489;-88
2020/12/17 11:29:13;;;;;;;11.60;10.50;;;10.20;99.90;;;;;;4978000;28;20504;-87
2020/12/17 11:31:46;;;;;;;11.03;9.93;;;10.20;99.90;;;;;;4977890;28;20564;-87
2020/12/17 11:34:14;;;;;;;11.13;9.97;;;10.20;99.90;;;;;;4977942;28;20445;-88
2020/12/17 11:36:42;;;;;;;10.43;9.43;;;10.20;99.90;;;;;;4978078;28;20532;-87
2020/12/17 11:39:10;;;;;;;10.73;9.73;;;10.20;99.90;;;;;;4977440;28;20512;-88
2020/12/17 11:41:37;;;;;;;9.93;9.00;;;10.20;99.90;;;;;;4978601;28;20466;-87
2020/12/17 11:44:05;;;;;;;9.63;8.63;;;10.20;99.90;;;;;;4977646;28;20458;-87
2020/12/17 11:46:33;;;;;;;9.17;8.37;;;10.20;99.90;;;;;;4977838;28;20453;-87
2020/12/17 11:49:00;;;;;;;9.77;8.77;;;10.20;99.90;;;;;;4978163;28;20454;-87
2020/12/17 11:51:27;;;;;;;9.80;8.90;;;10.20;99.90;;;;;;4977811;28;20507;-87
2020/12/17 11:53:55;;;;;;;10.67;9.67;;;10.20;99.90;;;;;;4978361;28;20493;-87
2020/12/17 11:56:22;;;;;;;12.30;11.00;;;10.30;99.90;;;;;;4978228;28;20880;-87
2020/12/17 11:58:50;;;;;;;11.20;10.20;;;10.30;99.90;;;;;;4977745;28;20496;-87
2020/12/17 12:01:18;;;;;;;12.53;11.33;;;10.40;99.90;;;;;;4977625;28;20548;-87
2020/12/17 12:03:45;;;;;;;11.57;10.40;;;10.40;99.90;;;;;;4977653;28;20446;-88
2020/12/17 12:06:14;;;;;;;13.13;11.83;;;10.40;99.90;;;;;;4977869;28;20876;-88
2020/12/17 12:08:41;;;;;;;11.30;10.30;;;10.40;99.90;;;;;;4978243;28;20977;-88
2020/12/17 12:11:09;;;;;;;9.30;8.50;;;10.40;99.90;;;;;;4977516;28;20836;-87
2020/12/17 12:13:49;;;;;;;9.10;8.20;;;10.40;99.90;;;;;;4976272;28;20445;-87
2020/12/17 12:16:17;;;;;;;9.30;8.50;;;10.40;99.90;;;;;;4976078;28;20450;-87
2020/12/17 12:18:45;;;;;;;9.40;8.50;;;10.40;99.90;;;;;;4984129;28;20454;-87
2020/12/17 12:21:13;;;;;;;9.40;8.50;;;10.40;99.90;;;;;;4977889;28;20488;-87
2020/12/17 12:23:42;;;;;;;10.18;9.15;;;10.40;99.90;;;;;;4977835;28;20458;-87
2020/12/17 12:26:10;;;;;;;10.30;9.30;;;10.40;99.90;;;;;;4977912;28;20229;-87
2020/12/17 12:28:38;;;;;;;9.60;8.60;;;10.40;99.90;;;;;;4977327;28;20446;-87
2020/12/17 12:31:06;;;;;;;9.93;8.93;;;10.40;99.90;;;;;;4977727;28;20525;-87
2020/12/17 12:33:34;;;;;;;10.32;9.32;;;10.40;99.90;;;;;;4976610;28;20465;-87
2020/12/17 12:36:02;;;;;;;9.80;8.80;;;10.50;99.90;;;;;;4977459;28;20313;-87
2020/12/17 12:38:29;;;;;;;10.70;9.60;;;10.50;99.90;;;;;;4977054;28;20461;-87
2020/12/17 12:40:57;;;;;;;11.03;9.97;;;10.50;99.90;;;;;;4977479;28;20486;-87
2020/12/17 12:43:24;;;;;;;11.63;10.53;;;10.50;99.90;;;;;;4978460;28;20508;-87
2020/12/17 12:45:51;;;;;;;11.80;10.70;;;10.40;99.90;;;;;;4978145;28;20462;-87
2020/12/17 12:48:19;;;;;;;11.90;10.70;;;10.40;99.90;;;;;;4978053;28;20445;-87